Easton, ME (04740)

9:01 PM EDT on July 27, 2016 (GMT -0400)
APRSWXNET | | Change Station

Elev 540 ft 46.70 °N, 68.03 °W | Updated 44 minutes ago

Scattered Clouds
Scattered Clouds
77 °F
Feels Like 79 °F
N
0
Wind Variable Wind from South
Gusts 5.0 mph

Today
High -- | Low -- °F
--% Chance of Precip.
Yesterday
High -- | Low -- °F
Precip. -- in
Pressure 29.94 in
Visibility 10.0 miles
Clouds Scattered Clouds 7000 ft
Heat Index 79 °F
Dew Point 68 °F
Humidity 75%
Rainfall in
Snow Depth Not available.
5:06 AM 8:08 PM
Last Quarter, 38% visible
METAR KPQI 280056Z AUTO 35006KT 10SM SCT070 24/19 A2984 RMK AO2 LTG DSNT NE SLP137 T02390189
Pressure 29.94 in
Visibility 10.0 miles
Clouds Scattered Clouds 7000 ft
Heat Index 79 °F
Dew Point 68 °F
Humidity 75%
Rainfall in
Snow Depth Not available.
5:06 AM 8:08 PM
Last Quarter, 38% visible
METAR KPQI 280056Z AUTO 35006KT 10SM SCT070 24/19 A2984 RMK AO2 LTG DSNT NE SLP137 T02390189

10-Day Weather Forecast

Almanac

Astronomy

Jul. 27, 2016 Rise Set
Actual Time
Civil Twilight
Nautical Twilight
Astronomical Twilight
Moon
Length of Visible Light
Length of Day
Tomorrow will be .
, % of the Moon is Illuminated

Today's Extremes

State Highs State Lows

Community

WunderPhotos

Upload Photos

1,927,987 photos uploaded!

WunderBlog® & News

Nearby

Air Quality

  Air Quality AQ Index Pollutant
Not available.

Snow Depth

Station Depth Elevation

Earthquake Activity

City Distance Mag. Time & Date
Minimum magnitude displayed is 2.5.

Coastal Water Temperatures

Place Temperature

Stations

Nearby Weather Stations

Station Location Temp. Windchill Dew Point Humidity Wind Precip. Elev Updated Type
                   

Watches & Warnings

There are currently no watches in effect.